Latest Weather Observations for Cressy

IDT60801

Issued at 5:35 am EST Friday 22 August 2014 (issued every 30 minutes, with the page automatically refreshed every 10 minutes)

About weather observations | Map of weather stations | Latest weather observations for TAS | Other Formats
Station Details ID: 091306 Name: CRESSY RESEARCH STATION Lat: -41.73 Lon: 147.08 Height: 148.0 m
Data from the previous 72 hours. | See also: Recent months at Cressy
Date/Time
EST
Temp
°C
App
Temp
°C
Dew
Point
Rel
Hum
%
Delta-T
°C
Wind Press
QNH
hPa
Press
MSL
hPa
Rain
since 9 am
mm
Dir
 
Spd
km/h
Gust
km/h
Spd
kts
Gust
kts
22/05:30am 1.2 -2.3 1.1 99 0.0 ENE 9 20 5 11 - - 0.0
22/05:00am 0.9 -1.3 0.8 99 0.0 N 2 7 1 4 - - 0.0
22/04:30am 0.3 -2.4 0.2 99 0.0 E 4 7 2 4 - - 0.0
22/04:00am 1.7 0.0 1.7 100 0.0 CALM 0 0 0 0 - - 0.0
22/03:30am 1.8 -0.3 1.8 100 0.0 SSE 2 7 1 4 - - 0.0
22/03:00am 2.6 0.7 2.6 100 0.0 ENE 2 7 1 4 - - 0.0
22/02:30am 2.3 0.7 2.2 99 0.0 CALM 0 6 0 3 - - 0.0
22/02:00am 1.4 -1.1 1.3 99 0.0 SSE 4 7 2 4 - - 0.0
22/01:30am 1.4 -0.8 1.3 99 0.0 ENE 2 9 1 5 - - 0.0
22/01:00am 2.2 -0.6 2.1 99 0.0 W 6 7 3 4 - - 0.0
22/12:30am 1.0 -0.8 0.9 99 0.0 CALM 0 0 0 0 - - 0.0
22/12:00am 2.1 0.4 2.0 99 0.0 SSE 0 0 0 0 - - 0.0
 
Date/Time
EST
Temp
°C
App
Temp
°C
Dew
Point
Rel
Hum
%
Delta-T
°C
Wind Press
QNH
hPa
Press
MSL
hPa
Rain
since 9 am
mm
Dir
 
Spd
km/h
Gust
km/h
Spd
kts
Gust
kts
21/11:30pm 2.6 1.0 2.5 99 0.0 CALM 0 0 0 0 - - 0.0
21/11:00pm 2.6 -0.2 2.3 98 0.1 S 6 7 3 4 - - 0.0
21/10:30pm 2.3 0.6 2.0 98 0.1 CALM 0 0 0 0 - - 0.0
21/10:00pm 4.1 2.7 3.8 98 0.1 CALM 0 0 0 0 - - 0.0
21/09:30pm 4.5 3.2 4.2 98 0.1 CALM 0 0 0 0 - - 0.0
21/09:00pm 5.1 3.9 4.8 98 0.1 CALM 0 0 0 0 - - 0.0
21/08:30pm 5.6 3.2 5.3 98 0.1 ESE 7 9 4 5 - - 0.0
21/08:00pm 5.0 3.8 4.7 98 0.1 CALM 0 0 0 0 - - 0.0
21/07:30pm 5.6 4.5 5.2 97 0.2 CALM 0 0 0 0 - - 0.0
21/07:00pm 5.9 4.9 5.5 97 0.2 CALM 0 0 0 0 - - 0.0
21/06:30pm 7.5 5.8 6.0 90 0.7 W 4 9 2 5 - - 0.0
21/06:00pm 9.0 8.0 5.4 78 1.6 W 0 0 0 0 - - 0.0
21/05:30pm 11.4 9.3 5.9 69 2.6 W 6 6 3 3 - - 0.0
21/05:00pm 13.1 11.0 6.7 65 3.1 N 7 9 4 5 - - 0.0
21/04:30pm 13.8 11.8 6.4 61 3.6 NW 6 7 3 4 - - 0.0
21/04:00pm 14.9 13.8 6.7 58 4.0 N 2 6 1 3 - - 0.0
21/03:30pm 14.0 11.7 5.6 57 4.0 W 7 13 4 7 - - 0.0
21/03:00pm 14.2 11.5 5.8 57 4.0 WNW 9 13 5 7 - - 0.0
21/02:30pm 14.1 11.8 5.7 57 4.0 NW 7 11 4 6 - - 0.0
21/02:00pm 14.3 11.4 6.4 59 3.8 NW 11 15 6 8 - - 0.0
21/01:30pm 14.1 13.1 7.2 63 3.4 N 2 9 1 5 - - 0.0
21/01:00pm 13.4 12.6 6.7 64 3.2 CALM 0 7 0 4 - - 0.0
21/12:30pm 12.8 10.8 6.4 65 3.1 N 6 9 3 5 - - 0.0
21/12:00pm 12.7 11.7 7.2 69 2.7 E 2 6 1 3 - - 0.0
21/11:30am 11.8 11.3 7.7 76 2.0 CALM 0 6 0 3 - - 0.0
21/11:00am 9.5 7.7 7.8 89 0.8 SE 7 11 4 6 - - 0.0
21/10:30am 8.2 6.0 7.8 97 0.2 SE 9 13 5 7 - - 0.0
21/10:00am 7.1 5.1 7.0 99 0.0 SSE 7 11 4 6 - - 0.0
21/09:30am 5.1 2.7 5.1 100 0.0 SE 7 11 4 6 - - 0.0
21/09:00am 3.8 1.3 3.8 100 0.0 SSE 6 9 3 5 - - 0.2
21/08:30am 2.1 -0.9 2.1 100 0.0 SSE 7 9 4 5 - - 0.2
21/08:00am -0.2 -3.5 -0.2 100 0.0 S 7 9 4 5 - - 0.2
21/07:30am -1.5 -5.8 -1.6 99 0.0 SSW 11 11 6 6 - - 0.0
21/07:00am -2.9 -6.6 -3.0 99 -0.1 S 7 11 4 6 - - 0.0
21/06:30am -2.7 -5.8 -2.8 99 -0.1 S 4 7 2 4 - - 0.0
21/06:00am -2.3 -4.6 -2.4 99 -0.1 SSE 0 0 0 0 - - 0.0
21/05:30am -1.9 -4.2 -2.0 99 -0.1 CALM 0 0 0 0 - - 0.0
21/05:00am -1.7 -3.9 -1.8 99 0.0 CALM 0 0 0 0 - - 0.0
21/04:30am -1.2 -4.5 -1.3 99 0.0 W 6 6 3 3 - - 0.0
21/04:00am -0.8 -4.1 -0.9 99 0.0 WSW 6 7 3 4 - - 0.0
21/03:30am -0.8 -4.2 -0.9 99 0.0 SSW 7 9 4 5 - - 0.0
21/03:00am -0.4 -2.5 -0.5 99 0.0 CALM 0 0 0 0 - - 0.0
21/02:30am -0.9 -3.0 -1.0 99 0.0 CALM 0 0 0 0 - - 0.0
21/02:00am 0.1 -3.0 0.0 99 0.0 S 6 7 3 4 - - 0.0
21/01:30am -0.3 -3.7 -0.4 99 0.0 SSW 7 9 4 5 - - 0.0
21/01:00am -0.1 -2.1 -0.2 99 0.0 CALM 0 0 0 0 - - 0.0
21/12:30am 1.4 -0.4 1.3 99 0.0 CALM 0 2 0 1 - - 0.0
21/12:00am 0.7 -2.4 0.4 98 0.1 E 6 7 3 4 - - 0.0
 
Date/Time
EST
Temp
°C
App
Temp
°C
Dew
Point
Rel
Hum
%
Delta-T
°C
Wind Press
QNH
hPa
Press
MSL
hPa
Rain
since 9 am
mm
Dir
 
Spd
km/h
Gust
km/h
Spd
kts
Gust
kts
20/11:30pm 2.5 -0.2 2.4 99 0.0 S 6 7 3 4 - - 0.0
20/11:00pm 1.9 -1.0 1.6 98 0.1 S 6 7 3 4 - - 0.0
20/10:30pm 2.3 -1.1 2.0 98 0.1 S 9 11 5 6 - - 0.0
20/10:00pm 2.8 -0.5 2.5 98 0.1 W 9 11 5 6 - - 0.0
20/09:30pm 3.5 0.9 3.2 98 0.1 S 6 7 3 4 - - 0.0
20/09:00pm 3.8 2.4 3.5 98 0.1 CALM 0 0 0 0 - - 0.0
20/08:30pm 3.3 -0.3 3.0 98 0.1 SSW 11 13 6 7 - - 0.0
20/08:00pm 3.5 0.3 3.2 98 0.1 W 9 11 5 6 - - 0.0
20/07:30pm 4.3 1.7 4.0 98 0.1 WSW 7 7 4 4 - - 0.0
20/07:00pm 4.5 1.9 4.1 97 0.2 WNW 7 9 4 5 - - 0.0
20/06:30pm 5.8 3.1 3.6 86 0.9 NNW 7 9 4 5 - - 0.0
20/06:00pm 9.3 6.2 3.7 68 2.5 N 9 11 5 6 - - 0.0
20/05:30pm 11.4 8.8 3.4 58 3.6 W 6 6 3 3 - - 0.0
20/05:00pm 12.5 10.0 4.0 56 3.9 WNW 6 7 3 4 - - 0.0
20/04:30pm 13.0 11.1 3.1 51 4.4 S 2 7 1 4 - - 0.0
20/04:00pm 13.6 11.5 3.7 51 4.5 SSE 4 7 2 4 - - 0.0
20/03:30pm 13.1 10.6 3.5 52 4.3 SE 6 9 3 5 - - 0.0
20/03:00pm 13.1 10.3 3.2 51 4.4 W 7 11 4 6 - - 0.0
20/02:30pm 13.6 10.8 3.1 49 4.7 E 7 11 4 6 - - 0.0
20/02:00pm 12.8 10.1 3.5 53 4.2 W 7 11 4 6 - - 0.0
20/01:30pm 12.3 9.7 3.0 53 4.1 ESE 6 11 3 6 - - 0.0
20/01:00pm 12.1 9.1 4.1 58 3.6 ESE 9 13 5 7 - - 0.0
20/12:30pm 12.4 10.0 5.1 61 3.4 ESE 7 11 4 6 - - 0.0
20/12:00pm 11.0 8.5 3.8 61 3.2 S 6 11 3 6 - - 0.0
20/11:30am 11.0 8.7 4.7 65 2.9 S 6 11 3 6 - - 0.0
20/11:00am 9.8 7.3 4.6 70 2.3 S 7 11 4 6 - - 0.0
20/10:30am 9.0 6.0 4.2 72 2.1 SSE 9 11 5 6 - - 0.0
20/10:00am 8.4 4.9 5.5 82 1.3 S 13 17 7 9 - - 0.0
20/09:30am 7.2 3.8 6.0 92 0.5 SSE 13 15 7 8 - - 0.0
20/09:00am 6.1 3.0 5.7 97 0.2 SSW 11 15 6 8 - - 0.0
20/08:30am 4.4 1.4 4.1 98 0.1 WSW 9 13 5 7 - - 0.0
20/08:00am 2.9 -0.4 2.6 98 0.1 WSW 9 15 5 8 - - 0.0
20/07:30am 0.2 -2.9 -0.1 98 0.1 WSW 6 9 3 5 - - 0.0
20/07:00am -0.1 -3.9 -0.4 98 0.1 NW 9 11 5 6 - - 0.0
20/06:30am 1.0 -2.6 0.9 99 0.0 SSW 9 11 5 6 - - 0.0
20/06:00am 0.3 -3.0 0.0 98 0.1 SSW 7 11 4 6 - - 0.0
20/05:30am -1.1 -4.4 -1.4 98 0.1 S 6 7 3 4 - - 0.0
20/05:00am -0.9 -4.8 -1.2 98 0.1 WSW 9 11 5 6 - - 0.0
20/04:30am -0.5 -3.0 -0.8 98 0.1 WNW 2 7 1 4 - - 0.0
20/04:00am 1.3 -0.5 1.0 98 0.1 CALM 0 0 0 0 - - 0.0
20/03:30am 2.1 -0.8 1.7 97 0.2 SSW 6 9 3 5 - - 0.0
20/03:00am 1.8 -1.3 1.5 98 0.1 S 7 7 4 4 - - 0.0
20/02:30am 1.6 -1.9 1.2 97 0.2 SSW 9 11 5 6 - - 0.0
20/02:00am 2.8 -0.1 2.4 97 0.2 NW 7 11 4 6 - - 0.0
20/01:30am 3.7 2.3 3.3 97 0.2 CALM 0 0 0 0 - - 0.0
20/01:00am 4.1 1.9 3.1 93 0.4 W 4 7 2 4 - - 0.0
20/12:30am 5.5 2.9 4.2 91 0.6 SW 7 9 4 5 - - 0.0
20/12:00am 4.5 1.9 4.2 98 0.1 S 7 9 4 5 - - 0.0
 
Date/Time
EST
Temp
°C
App
Temp
°C
Dew
Point
Rel
Hum
%
Delta-T
°C
Wind Press
QNH
hPa
Press
MSL
hPa
Rain
since 9 am
mm
Dir
 
Spd
km/h
Gust
km/h
Spd
kts
Gust
kts
19/11:30pm 4.0 1.3 3.7 98 0.1 S 7 9 4 5 - - 0.0
19/11:00pm 3.4 0.8 3.1 98 0.1 SSE 6 7 3 4 - - 0.0
19/10:30pm 3.4 1.9 3.1 98 0.1 CALM 0 0 0 0 - - 0.0
19/10:00pm 3.7 2.3 3.4 98 0.1 CALM 0 7 0 4 - - 0.0
19/09:30pm 4.5 3.2 4.2 98 0.1 CALM 0 0 0 0 - - 0.0
19/09:00pm 5.3 3.8 5.0 98 0.1 N 2 6 1 3 - - 0.0
19/08:30pm 5.4 2.6 5.1 98 0.1 WSW 9 11 5 6 - - 0.0
19/08:00pm 4.6 2.6 4.3 98 0.1 S 4 7 2 4 - - 0.0
19/07:30pm 3.4 0.2 3.1 98 0.1 SW 9 13 5 7 - - 0.0
19/07:00pm 3.7 0.8 2.8 94 0.4 W 7 11 4 6 - - 0.0
19/06:30pm 5.6 4.0 2.4 80 1.3 CALM 0 0 0 0 - - 0.0
19/06:00pm 7.8 6.2 2.7 70 2.2 CALM 0 0 0 0 - - 0.0
19/05:30pm 9.9 8.3 2.7 61 3.1 CALM 0 0 0 0 - - 0.0
19/05:00pm 11.6 10.1 3.1 56 3.8 CALM 0 0 0 0 - - 0.0
19/04:30pm 12.5 10.8 4.0 56 3.9 N 2 7 1 4 - - 0.0
19/04:00pm 12.4 10.0 4.1 57 3.8 N 6 11 3 6 - - 0.0
19/03:30pm 12.1 9.0 3.6 56 3.8 N 9 13 5 7 - - 0.0
19/03:00pm 12.2 9.1 3.4 55 3.9 N 9 13 5 7 - - 0.0
19/02:30pm 12.4 9.8 4.4 58 3.7 N 7 13 4 7 - - 0.0
19/02:00pm 12.3 9.6 3.8 56 3.8 N 7 11 4 6 - - 0.0
19/01:30pm 11.5 8.3 3.3 57 3.6 N 9 15 5 8 - - 0.0
19/01:00pm 11.1 7.9 2.9 57 3.6 NNE 9 13 5 7 - - 0.0
19/12:30pm 10.7 7.5 3.0 59 3.4 NW 9 13 5 7 - - 0.0
19/12:00pm 10.4 7.6 3.2 61 3.2 N 7 15 4 8 - - 0.0
19/11:30am 10.0 7.3 3.7 65 2.8 NNW 7 11 4 6 - - 0.0
19/11:00am 9.4 8.0 3.8 68 2.5 CALM 0 0 0 0 - - 0.0
19/10:30am 8.9 7.4 5.1 77 1.7 ESE 2 7 1 4 - - 0.0
19/10:00am 7.1 6.1 5.4 89 0.8 CALM 0 0 0 0 - - 0.0
19/09:30am 5.6 4.5 5.3 98 0.1 CALM 0 0 0 0 - - 0.0
19/09:00am 3.9 2.5 3.8 99 0.0 CALM 0 0 0 0 - - 0.0
19/08:30am 2.0 0.3 2.0 100 0.0 CALM 0 0 0 0 - - 0.0
19/08:00am -0.2 -3.4 -0.3 99 0.0 SE 6 7 3 4 - - 0.0
19/07:30am -1.4 -4.4 -1.5 99 0.0 SE 4 7 2 4 - - 0.0
19/07:00am -2.7 -5.1 -2.8 99 -0.1 CALM 0 0 0 0 - - 0.0
19/06:30am -2.0 -5.4 -2.1 99 -0.1 SW 6 7 3 4 - - 0.0
19/06:00am -1.7 -5.3 -1.8 99 0.0 S 7 9 4 5 - - 0.0

Other Formats:

Comma delimited format used in spreadsheet applications
http://www.bom.gov.au/fwo/IDT60801/IDT60801.95969.axf

JavaScript Object Notation format (JSON) in row-major order
http://www.bom.gov.au/fwo/IDT60801/IDT60801.95969.json